This is the latest recevied weather packets stored in our database for station/object CE3UOB-10. If no packets are shown the sender has not sent any weather packets the latest 10 day(s).
| Time | Temp. | Humidity | Pressure | Rain* | Wind** | Luminosity | Snow |
|---|---|---|---|---|---|---|---|
| 1778172230 | 14.44° C | 75% | 1003.3 hPa | - | - | - | - |
| 1778170436 | 13.89° C | 78% | 1003.6 hPa | - | - | - | - |
| 1778170430 | 13.89° C | 78% | 1003.6 hPa | - | - | - | - |
| 1778168630 | 12.78° C | 83% | 1003.7 hPa | - | - | - | - |
| 1778166836 | 11.67° C | 85% | 1004.1 hPa | - | - | - | - |
| 1778166832 | 11.67° C | 85% | 1004.1 hPa | - | - | - | - |
| 1778165030 | 13.33° C | 81% | 1004.2 hPa | - | - | - | - |
| 1778163229 | 13.33° C | 80% | 1004.5 hPa | - | - | - | - |
| 1778161484 | 12.78° C | 87% | 1004.4 hPa | - | - | - | - |
| 1778161436 | 12.78° C | 87% | 1004.4 hPa | - | - | - | - |
| 1778161429 | 12.78° C | 87% | 1004.4 hPa | - | - | - | - |
| 1778159636 | 10° C | 97% | 1004.2 hPa | - | - | - | - |
| 1778159629 | 10° C | 97% | 1004.2 hPa | - | - | - | - |
| 1778157836 | 9.44° C | 100% | 1004.1 hPa | - | - | - | - |
| 1778157829 | 9.44° C | 100% | 1004.1 hPa | - | - | - | - |
| 1778156037 | 8.89° C | 100% | 1003.8 hPa | - | - | - | - |
| 1778156028 | 8.89° C | 100% | 1003.8 hPa | - | - | - | - |
| 1778154236 | 9.44° C | 98% | 1003.5 hPa | - | - | - | - |
| 1778154231 | 9.44° C | 98% | 1003.5 hPa | - | - | - | - |
| 1778152435 | 9.44° C | 99% | 1003.5 hPa | - | - | - | - |
| 1778152431 | 9.44° C | 99% | 1003.5 hPa | - | - | - | - |
| 1778150635 | 9.44° C | 98% | 1003.1 hPa | - | - | - | - |
| 1778150631 | 9.44° C | 98% | 1003.1 hPa | - | - | - | - |
| 1778148835 | 9.44° C | 99% | 1002.7 hPa | - | - | - | - |
| 1778148831 | 9.44° C | 99% | 1002.7 hPa | - | - | - | - |
* Rain since midnight (hover to see other rain measurements)
** Current wind speed in m/s (hover to see current wind gust speed)